This is the latest recevied weather packets stored in our database for station/object KC5TIL-3. If no packets are shown the sender has not sent any weather packets the latest 10 day(s).
| Time | Temp. | Humidity | Pressure | Rain* | Wind** | Luminosity | Snow |
|---|---|---|---|---|---|---|---|
| 1777561956 | 17.22° C | 62% | 1013.8 hPa | 0 mm | 1.79 m/s, 46° | - | - |
| 1777561655 | 17.22° C | 62% | 1012.8 hPa | 0 mm | 1.79 m/s, 34° | - | - |
| 1777561357 | 17.22° C | 62% | 1012.8 hPa | 0 mm | 1.79 m/s, 16° | - | - |
| 1777561058 | 17.22° C | 62% | 1012.8 hPa | 0 mm | 2.68 m/s, 22° | - | - |
| 1777560758 | 17.22° C | 61% | 1012.8 hPa | 0 mm | 1.79 m/s, 293° | - | - |
| 1777560459 | 17.22° C | 61% | 1012.8 hPa | 0 mm | 0 m/s | - | - |
| 1777559860 | 17.22° C | 60% | 1011.8 hPa | 0 mm | 1.79 m/s, 68° | - | - |
| 1777559561 | 17.22° C | 60% | 1011.8 hPa | 0 mm | 1.34 m/s, 308° | - | - |
| 1777559264 | 17.22° C | 61% | 1011.8 hPa | 0 mm | 2.24 m/s, 66° | - | - |
| 1777558958 | 17.22° C | 62% | 1012.8 hPa | 0 mm | 2.68 m/s, 73° | - | - |
| 1777558659 | 16.67° C | 63% | 1012.8 hPa | 0 mm | 2.68 m/s, 69° | - | - |
| 1777558356 | 17.22° C | 65% | 1012.8 hPa | 0 mm | 1.79 m/s, 103° | - | - |
| 1777558055 | 16.67° C | 65% | 1012.8 hPa | 0 mm | 1.79 m/s, 161° | - | - |
| 1777557756 | 16.67° C | 66% | 1012.8 hPa | 0 mm | 1.34 m/s, 75° | - | - |
| 1777556859 | 16.67° C | 66% | 1011.8 hPa | 0 mm | 2.68 m/s, 13° | - | - |
| 1777556560 | 16.67° C | 66% | 1011.8 hPa | 0 mm | 1.34 m/s, 295° | - | - |
| 1777556260 | 16.67° C | 66% | 1011.8 hPa | 0 mm | 1.79 m/s, 12° | - | - |
| 1777555961 | 16.67° C | 66% | 1011.8 hPa | 0 mm | 1.79 m/s, 340° | - | - |
| 1777555064 | 16.67° C | 66% | 1011.8 hPa | 0 mm | 2.68 m/s, 280° | - | - |
| 1777554464 | 16.67° C | 66% | 1011.8 hPa | 0 mm | 2.68 m/s, 25° | - | - |
| 1777554161 | 16.67° C | 66% | 1011.8 hPa | 0 mm | 2.24 m/s, 282° | - | - |
| 1777553864 | 16.67° C | 66% | 1011.8 hPa | 0 mm | 1.79 m/s, 273° | - | - |
| 1777553259 | 16.67° C | 66% | 1011.8 hPa | 0 mm | 1.79 m/s, 79° | - | - |
| 1777552655 | 16.67° C | 66% | 1011.8 hPa | 0 mm | 2.68 m/s, 13° | - | - |
| 1777552357 | 16.67° C | 66% | 1011.8 hPa | 0 mm | 2.24 m/s, 338° | - | - |
* Rain latest hour (hover to see other rain measurements)
** Current wind speed in m/s (hover to see current wind gust speed)